»·PEaware :: N2013F KMRY-KLAS

N2013F :: KMRY-KLAS

FLIGHT INFORMATION

Flight Status: Arrived
Operator: Privately registered:
United States
More flights under this callsign
Pilot: Anonymous 32151 (32151)
Aircraft: SOCATA TBM-900
(TBM9)
More flights by this aircraft type
Origin: KMRY Monterey Peninsula
United States
Destination: KLAS McCarran Intl
United States
More flights between these airports :: More routes between these airports
Route: KMRY DCT KLAS
File this flight plan on PilotEdge
Remarks:
Altitude:
(Current/Filed)
17,500ft
Speed:
(Current/Filed)
270kts
Departed: 03-Nov-20 10:41 AM
Arrived: 03-Nov-20 12:26 PM
Distance/Time
Traveled:
324nm/1:44
Distance/Time
To Go:
Arrived

Flight Plot

Page will automatically refresh every two minutes.

Flight plan parsing failed; only flown route is shown


Map Options




Map Legend


Flown Route
Filed Route
Departure Airport
Arrival Airport
Navaid (VOR, NDB)
Fix

Horizontal Profiles

Position Reports

Time Latitude Longitude Heading Altitude Ground
Speed
03-Nov-20 10:31 36.590861 -121.848162 136 195ft 0kts
03-Nov-20 10:32 36.590861 -121.848162 136 195ft 0kts
03-Nov-20 10:33 36.590861 -121.848162 136 195ft 0kts
03-Nov-20 10:34 36.590861 -121.848162 136 195ft 0kts
03-Nov-20 10:35 36.590861 -121.848162 136 195ft 0kts
03-Nov-20 10:36 36.590806 -121.848062 115 195ft 0kts
03-Nov-20 10:37 36.590649 -121.849944 255 186ft 27kts
03-Nov-20 10:38 36.588340 -121.845162 66 204ft 0kts
03-Nov-20 10:39 36.588340 -121.845162 66 204ft 0kts
03-Nov-20 10:40 36.585124 -121.834425 113 257ft 117kts
03-Nov-20 10:41 36.577995 -121.780180 95 1725ft 190kts
03-Nov-20 10:42 36.572105 -121.713006 95 3974ft 199kts
03-Nov-20 10:43 36.565954 -121.643555 95 6241ft 204kts
03-Nov-20 10:44 36.560094 -121.572629 95 8437ft 208kts
03-Nov-20 10:45 36.554261 -121.499671 96 10539ft 214kts
03-Nov-20 10:47 36.548576 -121.425509 96 12623ft 217kts
03-Nov-20 10:48 36.542838 -121.350246 95 14612ft 222kts
03-Nov-20 10:49 36.536421 -121.272198 95 16458ft 231kts
03-Nov-20 10:50 36.528679 -121.187550 96 17394ft 269kts
03-Nov-20 10:51 36.519483 -121.089319 96 17444ft 298kts
03-Nov-20 10:52 36.510168 -120.986956 95 17426ft 296kts
03-Nov-20 10:53 36.500945 -120.885181 95 17436ft 297kts
03-Nov-20 10:54 36.491615 -120.783087 95 17429ft 297kts
03-Nov-20 10:55 36.482197 -120.681001 95 17424ft 296kts
03-Nov-20 10:56 36.472702 -120.579300 95 17423ft 296kts
03-Nov-20 10:57 36.463148 -120.477329 95 17422ft 296kts
03-Nov-20 10:58 36.453548 -120.375468 95 17426ft 297kts
03-Nov-20 10:59 36.443775 -120.273150 95 17426ft 298kts
03-Nov-20 11:00 36.434015 -120.170853 95 17416ft 299kts
03-Nov-20 11:01 36.424096 -120.068229 95 17416ft 300kts
03-Nov-20 11:02 36.413841 -119.965206 95 17416ft 301kts
03-Nov-20 11:03 36.403499 -119.862130 95 17415ft 301kts
03-Nov-20 11:04 36.393147 -119.758768 95 17414ft 301kts
03-Nov-20 11:05 36.382856 -119.655676 95 17414ft 301kts
03-Nov-20 11:05 36.374421 -119.569858 95 17412ft 300kts
03-Nov-20 11:07 36.363102 -119.450406 95 17408ft 298kts
03-Nov-20 11:07 36.386714 -119.377515 33 17405ft 293kts
03-Nov-20 11:09 36.476920 -119.343380 6 17404ft 292kts
03-Nov-20 11:09 36.544418 -119.338235 3 17401ft 291kts
03-Nov-20 11:10 36.625383 -119.332570 4 17400ft 291kts
03-Nov-20 11:11 36.706240 -119.325531 5 17397ft 291kts
03-Nov-20 11:12 36.786873 -119.318312 0 17400ft 291kts
03-Nov-20 11:13 36.867456 -119.326943 354 17397ft 291kts
03-Nov-20 11:14 36.948206 -119.337325 354 17395ft 291kts
03-Nov-20 11:15 37.028753 -119.346421 355 17396ft 290kts
03-Nov-20 11:16 37.109311 -119.347053 8 17394ft 290kts
03-Nov-20 11:17 37.182307 -119.308193 40 17401ft 289kts
03-Nov-20 11:18 37.226077 -119.224680 64 17410ft 288kts
03-Nov-20 11:19 37.257872 -119.132691 73 17413ft 287kts
03-Nov-20 11:20 37.280304 -119.037289 73 17422ft 284kts
03-Nov-20 11:21 37.302933 -118.942269 73 17429ft 283kts
03-Nov-20 11:22 37.325947 -118.847584 72 17436ft 283kts
03-Nov-20 11:23 37.349252 -118.753038 72 17446ft 282kts
03-Nov-20 11:24 37.372799 -118.658250 72 17423ft 288kts
03-Nov-20 11:25 37.396950 -118.561610 72 17354ft 290kts
03-Nov-20 11:26 37.421380 -118.464814 72 17351ft 290kts
03-Nov-20 11:27 37.446077 -118.367767 73 17352ft 291kts
03-Nov-20 11:28 37.442806 -118.266567 99 17345ft 291kts
03-Nov-20 11:29 37.429868 -118.165542 99 17349ft 293kts
03-Nov-20 11:30 37.417492 -118.064166 98 17343ft 294kts
03-Nov-20 11:31 37.405586 -117.961865 98 17345ft 295kts
03-Nov-20 11:32 37.394147 -117.859733 98 17342ft 296kts
03-Nov-20 11:33 37.383083 -117.757061 98 17344ft 296kts
03-Nov-20 11:34 37.372164 -117.653750 98 17338ft 297kts
03-Nov-20 11:35 37.361564 -117.551124 98 17326ft 296kts
03-Nov-20 11:36 37.351205 -117.448242 98 17329ft 296kts
03-Nov-20 11:37 37.332787 -117.349136 129 17318ft 292kts
03-Nov-20 11:38 37.273289 -117.280304 141 17324ft 291kts
03-Nov-20 11:39 37.210563 -117.215516 141 17322ft 293kts
03-Nov-20 11:40 37.148030 -117.149851 140 17373ft 292kts
03-Nov-20 11:41 37.085868 -117.083709 140 17373ft 294kts
03-Nov-20 11:42 37.023641 -117.016837 140 17367ft 295kts
03-Nov-20 11:43 36.961420 -116.949561 140 17360ft 295kts
03-Nov-20 11:44 36.899397 -116.882155 140 17373ft 296kts
03-Nov-20 11:45 36.837393 -116.814311 140 17386ft 296kts
03-Nov-20 11:46 36.775503 -116.746225 140 17387ft 297kts
03-Nov-20 11:47 36.713339 -116.677619 140 17385ft 298kts
03-Nov-20 11:48 36.651410 -116.609117 140 17383ft 298kts
03-Nov-20 11:49 36.589363 -116.540190 140 17380ft 299kts
03-Nov-20 11:50 36.527328 -116.471042 139 17377ft 299kts
03-Nov-20 11:51 36.465365 -116.401907 139 17373ft 299kts
03-Nov-20 11:52 36.403644 -116.332899 139 17371ft 299kts
03-Nov-20 11:53 36.341844 -116.263786 139 17370ft 298kts
03-Nov-20 11:54 36.280227 -116.195017 139 17364ft 297kts
03-Nov-20 11:55 36.219586 -116.127368 139 16560ft 272kts
03-Nov-20 11:56 36.166873 -116.068795 139 15019ft 243kts
03-Nov-20 11:57 36.116734 -116.013991 139 13097ft 237kts
03-Nov-20 11:58 36.067599 -115.961130 139 11097ft 230kts
03-Nov-20 11:59 36.020101 -115.910411 139 9091ft 220kts
03-Nov-20 12:00 35.971275 -115.858515 139 7525ft 255kts
03-Nov-20 12:01 35.917513 -115.801326 139 7343ft 253kts
03-Nov-20 12:02 35.906218 -115.727223 83 7322ft 252kts
03-Nov-20 12:03 35.869037 -115.658240 137 7336ft 249kts
03-Nov-20 12:04 35.817161 -115.601157 138 7329ft 250kts
03-Nov-20 12:05 35.769455 -115.538738 127 7330ft 250kts
03-Nov-20 12:06 35.727465 -115.470232 127 7324ft 251kts
03-Nov-20 12:07 35.683880 -115.399970 127 6488ft 268kts
03-Nov-20 12:08 35.690150 -115.324007 17 4469ft 277kts
03-Nov-20 12:09 35.758476 -115.355438 328 3405ft 255kts
03-Nov-20 12:10 35.817885 -115.337618 27 4719ft 239kts
03-Nov-20 12:11 35.833332 -115.281642 111 5133ft 267kts
03-Nov-20 12:12 35.795269 -115.225924 250 4206ft 286kts
03-Nov-20 12:13 35.842050 -115.278286 333 6382ft 217kts
03-Nov-20 12:14 35.902566 -115.293179 22 6645ft 239kts
03-Nov-20 12:15 35.966794 -115.270760 2 6673ft 246kts
03-Nov-20 12:16 36.027748 -115.254060 26 6644ft 192kts
03-Nov-20 12:17 36.069686 -115.223307 32 6650ft 164kts
03-Nov-20 12:18 36.110507 -115.192352 32 6691ft 186kts
03-Nov-20 12:19 36.156209 -115.158008 31 6685ft 195kts
03-Nov-20 12:20 36.201038 -115.113540 50 4685ft 227kts
03-Nov-20 12:21 36.235346 -115.078120 313 3825ft 152kts
03-Nov-20 12:22 36.198544 -115.101873 193 3841ft 202kts
03-Nov-20 12:23 36.146935 -115.129365 204 3742ft 180kts
03-Nov-20 12:24 36.109107 -115.150879 205 2644ft 106kts
03-Nov-20 12:25 36.094233 -115.160925 295 2111ft 0kts
03-Nov-20 12:26 36.094590 -115.161491 342 2110ft 18kts
03-Nov-20 12:27 36.097082 -115.161155 177 2103ft 9kts

Navigation Log

Ident Type
Flight plan parsing failed, navigation log unavailable